createdAt,value
2023-09-11T00:00:35.201Z,27.68
2023-09-11T00:03:02.055Z,27.25
2023-09-11T00:05:28.701Z,27.66
2023-09-11T00:07:55.383Z,27.46
2023-09-11T00:10:21.986Z,27.61
2023-09-11T00:12:48.538Z,27.00
2023-09-11T00:15:15.151Z,27.61
2023-09-11T00:17:41.807Z,27.58
2023-09-11T00:20:11.781Z,27.16
2023-09-11T00:22:38.800Z,27.16
2023-09-11T00:25:05.875Z,27.53
2023-09-11T00:27:32.436Z,27.50
2023-09-11T00:29:59.073Z,27.48
2023-09-11T00:32:25.769Z,27.36
2023-09-11T00:34:52.505Z,27.39
2023-09-11T00:37:19.100Z,27.25
2023-09-11T00:39:45.633Z,27.42
2023-09-11T00:42:12.337Z,27.11
2023-09-11T00:44:39.016Z,27.41
2023-09-11T00:47:06.188Z,27.24
2023-09-11T00:49:33.409Z,27.38
2023-09-11T00:52:00.647Z,27.05
2023-09-11T00:54:27.554Z,27.20
2023-09-11T00:56:54.840Z,26.95
2023-09-11T00:59:22.194Z,26.67
2023-09-11T01:01:49.271Z,27.29
2023-09-11T01:04:17.064Z,27.15
2023-09-11T01:06:43.966Z,27.02
2023-09-11T01:09:10.652Z,26.91
2023-09-11T01:11:37.279Z,26.99
2023-09-11T01:14:03.964Z,27.16
2023-09-11T01:16:30.602Z,27.17
2023-09-11T01:19:14.108Z,27.01
2023-09-11T01:22:10.715Z,26.96
2023-09-11T01:24:55.762Z,27.09
2023-09-11T01:27:50.918Z,27.00
2023-09-11T01:30:17.704Z,26.96
2023-09-11T01:32:45.900Z,26.94
2023-09-11T01:35:12.524Z,26.82
2023-09-11T01:37:39.102Z,26.70
2023-09-11T01:40:06.560Z,26.99
2023-09-11T01:42:55.851Z,26.81
2023-09-11T01:45:23.067Z,26.74
2023-09-11T01:47:52.321Z,26.93
2023-09-11T01:50:21.416Z,26.93
2023-09-11T01:52:50.430Z,26.90
2023-09-11T01:55:18.021Z,26.88
2023-09-11T01:57:44.897Z,26.83
2023-09-11T02:00:13.003Z,26.79
2023-09-11T02:02:40.906Z,26.44
2023-09-11T02:05:08.249Z,26.60
2023-09-11T02:07:34.904Z,26.57
2023-09-11T02:10:01.470Z,26.42
2023-09-11T02:12:28.039Z,26.69
2023-09-11T02:14:54.646Z,26.42
2023-09-11T02:17:21.206Z,26.54
2023-09-11T02:19:47.812Z,26.50
2023-09-11T02:22:14.404Z,26.52
2023-09-11T02:24:41.010Z,26.63
2023-09-11T02:27:07.556Z,26.18
2023-09-11T02:29:34.177Z,26.75
2023-09-11T02:32:01.939Z,26.66
2023-09-11T02:34:28.531Z,26.57
2023-09-11T02:36:55.145Z,26.46
2023-09-11T02:39:21.727Z,26.73
2023-09-11T02:41:48.376Z,26.66
2023-09-11T02:44:14.990Z,26.36
2023-09-11T02:46:41.671Z,26.68
2023-09-11T02:49:08.204Z,26.42
2023-09-11T02:51:34.826Z,26.60
2023-09-11T02:54:02.113Z,26.40
2023-09-11T02:56:28.757Z,26.50
2023-09-11T02:58:55.306Z,26.50
2023-09-11T03:01:21.807Z,26.49
2023-09-11T03:03:48.376Z,26.55
2023-09-11T03:06:15.064Z,26.39
2023-09-11T03:08:41.816Z,26.34
2023-09-11T03:11:10.407Z,26.19
2023-09-11T03:13:37.845Z,26.07
2023-09-11T03:16:14.927Z,26.30
2023-09-11T03:18:42.493Z,26.39
2023-09-11T03:21:09.815Z,26.37
2023-09-11T03:23:37.169Z,26.19
2023-09-11T03:26:03.909Z,26.33
2023-09-11T03:28:32.162Z,26.25
2023-09-11T03:31:03.863Z,26.31
2023-09-11T03:33:30.868Z,25.87
2023-09-11T03:35:58.148Z,25.95
2023-09-11T03:38:24.736Z,26.05
2023-09-11T03:40:51.294Z,26.06
2023-09-11T03:43:17.940Z,25.58
2023-09-11T03:45:44.670Z,25.67
2023-09-11T03:48:11.437Z,26.08
2023-09-11T03:50:38.202Z,26.03
2023-09-11T03:53:05.025Z,26.07
2023-09-11T03:55:31.903Z,25.86
2023-09-11T03:57:58.618Z,25.77
2023-09-11T04:00:25.162Z,25.73
2023-09-11T04:02:51.799Z,25.99
2023-09-11T04:05:18.409Z,25.91
2023-09-11T04:07:45.257Z,25.73
2023-09-11T04:10:11.851Z,25.73
2023-09-11T04:12:38.549Z,25.34
2023-09-11T04:15:05.570Z,25.94
2023-09-11T04:17:32.256Z,25.77
2023-09-11T04:19:58.819Z,25.90
2023-09-11T04:22:32.116Z,25.90
2023-09-11T04:24:58.687Z,25.33
2023-09-11T04:27:25.234Z,25.67
2023-09-11T04:29:52.169Z,25.97
2023-09-11T04:32:19.304Z,25.66
2023-09-11T04:34:45.940Z,25.61
2023-09-11T04:37:12.765Z,25.92
2023-09-11T04:39:39.508Z,25.54
2023-09-11T04:42:06.209Z,25.03
2023-09-11T04:44:33.056Z,25.80
2023-09-11T04:46:59.818Z,25.77
2023-09-11T04:49:26.327Z,25.70
2023-09-11T04:51:53.448Z,25.68
2023-09-11T04:54:19.946Z,25.65
2023-09-11T04:56:46.569Z,25.78
2023-09-11T04:59:13.094Z,25.54
2023-09-11T05:01:39.670Z,25.58
2023-09-11T05:04:07.665Z,25.73
2023-09-11T05:06:34.342Z,25.73
2023-09-11T05:09:12.047Z,25.73
2023-09-11T05:11:39.401Z,25.72
2023-09-11T05:14:06.131Z,25.62
2023-09-11T05:16:32.883Z,25.59
2023-09-11T05:18:59.480Z,25.62
2023-09-11T05:21:26.748Z,25.55
2023-09-11T05:23:53.569Z,25.62
2023-09-11T05:26:20.257Z,25.24
2023-09-11T05:28:46.819Z,25.50
2023-09-11T05:31:13.355Z,25.32
2023-09-11T05:33:40.112Z,25.45
2023-09-11T05:36:07.609Z,25.62
2023-09-11T05:38:34.238Z,25.54
2023-09-11T05:41:00.833Z,25.08
2023-09-11T05:43:29.209Z,25.49
2023-09-11T05:45:56.825Z,25.33
2023-09-11T05:48:25.039Z,25.34
2023-09-11T05:50:53.654Z,25.04
2023-09-11T05:53:20.584Z,25.43
2023-09-11T05:55:47.326Z,25.38
2023-09-11T05:58:13.961Z,25.40
2023-09-11T06:00:40.599Z,25.37
2023-09-11T06:03:07.876Z,25.29
2023-09-11T06:05:37.925Z,24.82
2023-09-11T06:08:04.871Z,25.28
2023-09-11T06:10:31.695Z,25.30
2023-09-11T06:12:58.279Z,25.20
2023-09-11T06:15:26.211Z,25.10
2023-09-11T06:17:53.021Z,25.13
2023-09-11T06:20:19.860Z,25.19
2023-09-11T06:22:46.442Z,25.27
2023-09-11T06:25:13.024Z,24.97
2023-09-11T06:27:39.661Z,25.21
2023-09-11T06:30:07.194Z,25.27
2023-09-11T06:32:36.601Z,25.27
2023-09-11T06:35:05.826Z,25.31
2023-09-11T06:37:32.543Z,25.33
2023-09-11T06:39:59.049Z,25.11
2023-09-11T06:42:26.189Z,24.90
2023-09-11T06:44:53.663Z,25.33
2023-09-11T06:47:20.622Z,25.24
2023-09-11T06:49:47.574Z,25.38
2023-09-11T06:52:14.201Z,25.20
2023-09-11T06:54:40.773Z,25.36
2023-09-11T06:57:07.848Z,25.33
2023-09-11T06:59:35.331Z,25.32
2023-09-11T07:02:02.291Z,24.92
2023-09-11T07:04:29.270Z,25.30
2023-09-11T07:06:57.622Z,25.32
2023-09-11T07:09:24.982Z,25.33
2023-09-11T07:11:52.116Z,25.32
2023-09-11T07:14:22.579Z,25.29
2023-09-11T07:16:49.637Z,25.22
2023-09-11T07:19:16.433Z,25.32
2023-09-11T07:21:45.374Z,25.00
2023-09-11T07:24:13.193Z,25.16
2023-09-11T07:26:40.256Z,25.24
2023-09-11T07:29:06.831Z,25.28
2023-09-11T07:31:34.637Z,25.15
2023-09-11T07:34:01.418Z,25.17
2023-09-11T07:36:29.369Z,24.57
2023-09-11T07:38:56.053Z,24.78
2023-09-11T07:41:24.931Z,25.23
2023-09-11T07:43:51.926Z,25.30
2023-09-11T07:46:21.009Z,25.33
2023-09-11T07:48:48.539Z,25.37
2023-09-11T07:51:15.477Z,25.31
2023-09-11T07:53:42.398Z,25.18
2023-09-11T07:56:11.404Z,25.29
2023-09-11T07:58:39.369Z,25.40
2023-09-11T08:01:06.938Z,25.41
2023-09-11T08:03:34.684Z,25.29
2023-09-11T08:06:02.277Z,25.42
2023-09-11T08:08:29.042Z,25.43
2023-09-11T08:10:57.691Z,25.45
2023-09-11T08:13:25.286Z,25.44
2023-09-11T08:15:52.197Z,25.36
2023-09-11T08:18:18.974Z,25.49
2023-09-11T08:20:50.937Z,25.31
2023-09-11T08:23:18.016Z,25.58
2023-09-11T08:25:44.723Z,25.04
2023-09-11T08:28:11.365Z,25.53
2023-09-11T08:30:39.759Z,25.64
2023-09-11T08:33:08.601Z,25.69
2023-09-11T08:35:35.362Z,25.54
2023-09-11T08:38:02.067Z,25.52
2023-09-11T08:40:32.190Z,25.45
2023-09-11T08:43:00.063Z,25.37
2023-09-11T08:45:29.764Z,25.32
2023-09-11T08:47:57.991Z,25.55
2023-09-11T08:50:32.955Z,25.87
2023-09-11T08:53:00.781Z,25.90
2023-09-11T08:55:29.396Z,25.87
2023-09-11T08:58:00.510Z,25.83
2023-09-11T09:00:29.297Z,26.10
2023-09-11T09:02:56.124Z,25.99
2023-09-11T09:05:24.836Z,26.02
2023-09-11T09:07:52.946Z,26.08
2023-09-11T09:10:19.909Z,26.09
2023-09-11T09:12:46.733Z,26.46
2023-09-11T09:15:16.213Z,26.33
2023-09-11T09:17:42.978Z,26.40
2023-09-11T09:20:11.258Z,26.49
2023-09-11T09:23:01.204Z,26.69
2023-09-11T09:25:29.743Z,26.69
2023-09-11T09:27:57.352Z,26.49
2023-09-11T09:30:25.782Z,26.86
2023-09-11T09:32:53.534Z,26.94
2023-09-11T09:35:23.135Z,26.80
2023-09-11T09:38:00.566Z,27.04
2023-09-11T09:40:38.761Z,27.02
2023-09-11T09:43:15.538Z,27.20
2023-09-11T09:45:43.761Z,27.27
2023-09-11T09:48:12.233Z,27.38
2023-09-11T09:50:51.665Z,27.38
2023-09-11T09:53:34.565Z,27.51
2023-09-11T09:56:06.541Z,27.40
2023-09-11T09:58:37.319Z,27.68
2023-09-11T10:01:09.164Z,27.62
2023-09-11T10:03:50.589Z,27.68
2023-09-11T10:06:18.882Z,27.94
2023-09-11T10:08:49.271Z,28.00
2023-09-11T10:11:33.006Z,27.92
2023-09-11T10:14:00.611Z,28.07
2023-09-11T10:16:28.492Z,28.23
2023-09-11T10:18:56.964Z,28.25
2023-09-11T10:21:23.907Z,28.11
2023-09-11T10:23:51.270Z,28.26
2023-09-11T10:26:24.008Z,28.13
2023-09-11T10:28:56.375Z,28.49
2023-09-11T10:31:36.721Z,28.63
2023-09-11T10:36:35.873Z,28.78
2023-09-11T10:39:05.645Z,28.96
2023-09-11T10:41:34.929Z,29.00
2023-09-11T10:44:01.648Z,28.99
2023-09-11T10:46:28.163Z,29.25
2023-09-11T10:48:54.845Z,29.34
2023-09-11T10:51:21.441Z,29.41
2023-09-11T10:53:52.117Z,29.33
2023-09-11T10:56:19.296Z,29.48
2023-09-11T10:59:07.174Z,29.03
2023-09-11T11:01:37.660Z,29.23
2023-09-11T11:04:22.163Z,30.07
2023-09-11T11:07:09.632Z,29.86
2023-09-11T11:09:52.009Z,30.17
2023-09-11T11:13:26.835Z,30.53
2023-09-11T11:16:26.709Z,30.70
2023-09-11T11:18:55.743Z,30.21
2023-09-11T11:21:22.522Z,30.55
2023-09-11T11:24:01.851Z,30.31
2023-09-11T11:26:31.600Z,31.25
2023-09-11T11:28:58.863Z,31.00
2023-09-11T11:31:28.290Z,31.51
2023-09-11T11:33:58.809Z,31.72
2023-09-11T11:36:27.624Z,32.01
2023-09-11T11:38:58.093Z,32.35
2023-09-11T11:41:25.128Z,32.66
2023-09-11T11:43:52.704Z,33.56
2023-09-11T11:46:26.718Z,33.94
2023-09-11T11:48:53.440Z,33.92
2023-09-11T11:51:31.642Z,34.69
2023-09-11T11:53:59.397Z,34.93
2023-09-11T11:56:27.395Z,35.06
2023-09-11T11:58:58.792Z,35.28
2023-09-11T12:01:25.533Z,35.29
2023-09-11T12:03:52.887Z,35.32
2023-09-11T12:06:21.200Z,35.24
2023-09-11T12:08:49.204Z,34.81
2023-09-11T12:11:15.953Z,34.50
2023-09-11T12:13:50.054Z,34.07
2023-09-11T12:16:17.615Z,33.85
2023-09-11T12:18:44.797Z,33.68
2023-09-11T12:21:11.921Z,33.44
2023-09-11T12:23:38.714Z,33.32
2023-09-11T12:26:06.299Z,32.83
2023-09-11T12:28:34.065Z,32.69
2023-09-11T12:31:06.573Z,32.41
2023-09-11T12:33:35.636Z,32.55
2023-09-11T12:36:02.549Z,32.76
2023-09-11T12:38:30.526Z,32.78
2023-09-11T12:40:58.883Z,32.62
2023-09-11T12:43:27.085Z,32.75
2023-09-11T12:45:54.034Z,32.77
2023-09-11T12:48:22.176Z,32.66
2023-09-11T12:50:48.982Z,32.39
2023-09-11T12:53:15.641Z,32.74
2023-09-11T12:55:43.529Z,32.64
2023-09-11T12:58:10.856Z,32.62
2023-09-11T13:00:38.581Z,32.77
2023-09-11T13:03:07.452Z,32.72
2023-09-11T13:05:34.479Z,32.88
2023-09-11T13:08:01.100Z,32.75
2023-09-11T13:10:27.895Z,32.93
2023-09-11T13:12:54.441Z,32.75
2023-09-11T13:15:21.767Z,32.98
2023-09-11T13:17:48.608Z,32.74
2023-09-11T13:20:15.509Z,32.70
2023-09-11T13:22:43.845Z,32.95
2023-09-11T13:25:13.667Z,32.96
2023-09-11T13:27:43.480Z,33.03
2023-09-11T13:30:10.660Z,33.08
2023-09-11T13:32:42.579Z,32.83
2023-09-11T13:35:10.809Z,33.09
2023-09-11T13:37:37.547Z,33.00
2023-09-11T13:40:04.344Z,33.01
2023-09-11T13:42:31.004Z,32.96
2023-09-11T13:44:57.718Z,33.02
2023-09-11T13:47:26.035Z,32.97
2023-09-11T13:49:53.133Z,32.83
2023-09-11T13:52:20.454Z,32.97
2023-09-11T13:54:47.922Z,32.83
2023-09-11T13:57:15.225Z,32.67
2023-09-11T13:59:41.979Z,32.83
2023-09-11T14:02:08.787Z,32.77
2023-09-11T14:04:36.055Z,32.79
2023-09-11T14:07:03.106Z,32.82
2023-09-11T14:09:30.244Z,32.77
2023-09-11T14:11:56.925Z,32.72
2023-09-11T14:14:23.611Z,32.71
2023-09-11T14:16:50.555Z,32.33
2023-09-11T14:19:17.444Z,32.54
2023-09-11T14:21:44.018Z,32.56
2023-09-11T14:24:10.602Z,32.69
2023-09-11T14:26:38.151Z,32.28
2023-09-11T14:29:04.934Z,32.51
2023-09-11T14:31:33.116Z,32.34
2023-09-11T14:33:59.652Z,32.29
2023-09-11T14:36:26.351Z,32.17
2023-09-11T14:38:53.463Z,32.29
2023-09-11T14:41:20.165Z,32.26
2023-09-11T14:43:46.852Z,32.19
2023-09-11T14:46:14.129Z,31.83
2023-09-11T14:48:41.069Z,31.80
2023-09-11T14:51:08.106Z,32.06
2023-09-11T14:53:42.031Z,31.91
2023-09-11T14:56:09.057Z,31.70
2023-09-11T14:58:35.813Z,31.86
2023-09-11T15:01:02.554Z,31.40
2023-09-11T15:03:29.447Z,31.26
2023-09-11T15:05:57.951Z,31.86
2023-09-11T15:08:24.963Z,31.45
2023-09-11T15:11:01.388Z,31.73
2023-09-11T15:13:28.686Z,31.66
2023-09-11T15:15:56.266Z,31.57
2023-09-11T15:18:25.224Z,31.40
2023-09-11T15:20:52.829Z,31.69
2023-09-11T15:23:19.757Z,31.68
2023-09-11T15:25:46.446Z,31.17
2023-09-11T15:28:13.082Z,31.60
2023-09-11T15:30:39.730Z,31.43
2023-09-11T15:33:07.272Z,31.49
2023-09-11T15:36:06.225Z,31.44
2023-09-11T15:38:35.066Z,31.35
2023-09-11T15:41:06.293Z,31.09
2023-09-11T15:43:37.924Z,30.77
2023-09-11T15:46:06.241Z,31.23
2023-09-11T15:48:35.107Z,31.02
2023-09-11T15:51:02.536Z,30.89
2023-09-11T15:53:29.717Z,30.86
2023-09-11T15:55:56.744Z,30.97
2023-09-11T15:58:25.354Z,30.55
2023-09-11T16:00:52.268Z,30.77
2023-09-11T16:03:21.157Z,30.99
2023-09-11T16:05:49.501Z,30.98
2023-09-11T16:08:16.548Z,30.85
2023-09-11T16:10:44.414Z,30.60
2023-09-11T16:13:11.584Z,30.55
2023-09-11T16:15:40.975Z,30.82
2023-09-11T16:18:07.982Z,30.66
2023-09-11T16:20:36.431Z,30.75
2023-09-11T16:23:04.714Z,30.69
2023-09-11T16:25:32.794Z,30.67
2023-09-11T16:27:59.964Z,30.65
2023-09-11T16:30:27.295Z,30.62
2023-09-11T16:32:56.424Z,30.57
2023-09-11T16:35:33.486Z,30.60
2023-09-11T16:38:01.170Z,30.22
2023-09-11T16:40:28.096Z,30.32
2023-09-11T16:42:57.928Z,29.70
2023-09-11T16:45:28.576Z,30.13
2023-09-11T16:47:55.458Z,30.05
2023-09-11T16:50:22.618Z,29.30
2023-09-11T16:52:51.470Z,29.96
2023-09-11T16:55:19.408Z,29.60
2023-09-11T16:57:46.201Z,29.94
2023-09-11T17:00:13.726Z,29.93
2023-09-11T17:03:03.479Z,29.42
2023-09-11T17:05:35.750Z,29.57
2023-09-11T17:08:02.836Z,29.84
2023-09-11T17:10:31.584Z,29.09
2023-09-11T17:13:01.724Z,29.82
2023-09-11T17:15:28.829Z,29.78
2023-09-11T17:18:02.604Z,29.79
2023-09-11T17:20:32.759Z,29.44
2023-09-11T17:23:06.990Z,29.50
2023-09-11T17:25:37.700Z,29.74
2023-09-11T17:28:08.118Z,29.71
2023-09-11T17:30:36.710Z,29.07
2023-09-11T17:33:08.628Z,29.67
2023-09-11T17:35:39.063Z,29.32
2023-09-11T17:38:16.631Z,28.85
2023-09-11T17:40:52.305Z,29.26
2023-09-11T17:43:22.298Z,29.53
2023-09-11T17:46:10.270Z,29.53
2023-09-11T17:48:49.164Z,28.75
2023-09-11T17:51:19.253Z,29.30
2023-09-11T17:53:49.485Z,29.11
2023-09-11T17:56:22.227Z,29.27
2023-09-11T17:58:56.972Z,28.72
2023-09-11T18:01:27.255Z,29.28
2023-09-11T18:03:58.547Z,28.99
2023-09-11T18:06:29.506Z,29.46
2023-09-11T18:13:10.204Z,29.39
2023-09-11T19:11:10.836Z,28.85
2023-09-11T19:13:37.714Z,28.57
2023-09-11T19:16:04.468Z,28.67
2023-09-11T19:18:38.275Z,28.52
2023-09-11T19:21:09.517Z,28.75
2023-09-11T19:23:36.167Z,28.74
2023-09-11T19:26:04.764Z,28.63
2023-09-11T19:28:32.883Z,28.70
2023-09-11T19:30:59.493Z,28.55
2023-09-11T19:33:26.228Z,28.27
2023-09-11T19:35:52.890Z,28.54
2023-09-11T19:38:20.085Z,28.48
2023-09-11T19:40:46.897Z,28.35
2023-09-11T19:43:15.882Z,28.26
2023-09-11T19:49:48.960Z,27.93
2023-09-11T19:52:15.703Z,28.18
2023-09-11T19:54:42.963Z,28.41
2023-09-11T19:57:09.708Z,28.12
2023-09-11T19:59:36.326Z,28.31
2023-09-11T20:02:03.586Z,28.20
2023-09-11T20:04:33.048Z,28.10
2023-09-11T20:06:59.564Z,27.85
2023-09-11T20:09:52.763Z,28.31
2023-09-11T20:12:19.467Z,28.22
2023-09-11T20:14:46.339Z,28.29
2023-09-11T20:17:12.966Z,28.23
2023-09-11T20:19:39.492Z,28.05
2023-09-11T20:22:06.222Z,27.97
2023-09-11T20:24:33.864Z,27.60
2023-09-11T20:27:00.517Z,28.15
2023-09-11T20:29:27.215Z,27.87
2023-09-11T20:31:53.944Z,28.07
2023-09-11T20:35:03.274Z,27.54
2023-09-11T20:37:31.229Z,27.62
2023-09-11T20:39:58.760Z,28.05
2023-09-11T20:42:25.506Z,27.75
2023-09-11T20:44:52.321Z,27.68
2023-09-11T20:47:19.465Z,27.98
2023-09-11T20:49:46.031Z,27.98
2023-09-11T20:52:12.645Z,27.88
2023-09-11T20:54:39.332Z,27.75
2023-09-11T20:57:05.902Z,27.50
2023-09-11T20:59:32.654Z,27.78
2023-09-11T21:01:59.233Z,27.92
2023-09-11T21:04:25.909Z,27.80
2023-09-11T21:06:52.731Z,27.33
2023-09-11T21:09:19.565Z,27.84
2023-09-11T21:11:46.104Z,27.78
2023-09-11T21:14:12.763Z,27.71
2023-09-11T21:17:29.981Z,27.78
2023-09-11T21:19:59.639Z,27.21
2023-09-11T21:22:26.664Z,27.02
2023-09-11T21:25:13.420Z,26.85
2023-09-11T21:27:40.304Z,26.93
2023-09-11T21:30:07.613Z,27.51
2023-09-11T21:32:34.216Z,27.63
2023-09-11T21:35:00.941Z,27.45
2023-09-11T21:37:27.654Z,27.46
2023-09-11T21:39:54.156Z,27.37
2023-09-11T21:42:20.737Z,27.42
2023-09-11T21:44:47.380Z,27.51
2023-09-11T21:47:13.930Z,27.48
2023-09-11T21:49:40.909Z,27.45
2023-09-11T21:52:07.476Z,27.49
2023-09-11T21:54:34.145Z,27.45
2023-09-11T21:57:05.599Z,27.02
2023-09-11T21:59:33.000Z,27.12
2023-09-11T22:02:00.046Z,26.86
2023-09-11T22:04:26.741Z,27.25
2023-09-11T22:06:53.589Z,27.28
2023-09-11T22:09:20.451Z,27.03
2023-09-11T22:11:47.194Z,27.22
2023-09-11T22:14:14.550Z,27.00
2023-09-11T22:16:41.131Z,27.06
2023-09-11T22:19:07.850Z,27.18
2023-09-11T22:21:34.492Z,26.93
2023-09-11T22:24:01.363Z,26.72
2023-09-11T22:26:28.150Z,27.06
2023-09-11T22:29:04.008Z,26.76
2023-09-11T22:31:40.883Z,27.12
2023-09-11T22:34:11.638Z,26.55
2023-09-11T22:36:38.521Z,26.37
2023-09-11T22:39:05.228Z,26.94
2023-09-11T22:41:31.844Z,27.05
2023-09-11T22:43:58.364Z,27.04
2023-09-11T22:46:24.955Z,26.88
2023-09-11T22:48:51.575Z,26.60
2023-09-11T22:51:18.094Z,27.02
2023-09-11T22:53:44.660Z,26.98
2023-09-11T22:56:11.243Z,26.78
2023-09-11T22:58:37.816Z,26.77
2023-09-11T23:01:16.795Z,26.61
2023-09-11T23:03:51.230Z,26.88
2023-09-11T23:06:17.903Z,26.90
2023-09-11T23:08:44.779Z,26.74
2023-09-11T23:11:11.509Z,26.75
2023-09-11T23:13:38.092Z,26.58
2023-09-11T23:16:04.847Z,26.86
2023-09-11T23:18:31.470Z,26.49
2023-09-11T23:20:58.070Z,26.79
2023-09-11T23:23:35.930Z,26.63
2023-09-11T23:26:02.554Z,26.53
2023-09-11T23:28:29.130Z,26.32
2023-09-11T23:30:59.709Z,26.39
2023-09-11T23:33:26.999Z,26.51
2023-09-11T23:35:53.987Z,26.65
2023-09-11T23:38:20.533Z,26.24
2023-09-11T23:40:47.144Z,26.61
2023-09-11T23:43:13.730Z,26.42
2023-09-11T23:45:40.383Z,26.43
2023-09-11T23:48:07.561Z,26.10
2023-09-11T23:50:34.225Z,26.47
2023-09-11T23:53:00.809Z,26.36
2023-09-11T23:55:29.165Z,26.14
2023-09-11T23:57:55.776Z,26.38
